LIRZLIRV

Guest
Details From LIRZ - PERUGIA
To LIRV - VITERBO
Flight Number -
Tags generated
Created
Modified
Stats Distance 44 nm / 82 km
Max Altitude 5,200 ft / 1,585 m
Waypoints 3
Social Downloads 0
Likes 0
Share VATSIM

Download

Looking for another format? Having issues loading an existing format? Contact us
Advertisement - Login to hide

Notes

Basic altitude profile: - Ascent Rate: 2500ft/min - Ascent Speed: 120kts - Cruise Altitude: 5000ft - Cruise Speed: 150kts - Descent Rate: 1500ft/min - Descent Speed: 120kts Options: - Use NATs: yes - Use PACOTS: no - Use low airways: yes - Use high airways: no

Route

LIRZ GITOD LIRV

ID Type Via Altitude Latitude Longitude Leg Dist Tot Dist Heading (true) Name
O LIRZ APT - 0 ft / 0 m 43.09619˚ 12.51332˚ - 0 nm - PERUGIA
GITOD FIX - 5,200 ft / 1,585 m 42.80028˚ 12.31083˚ 19 nm 19 nm 207° / 207° -
O LIRV APT - 0 ft / 0 m 42.43630˚ 12.06217˚ 24 nm 44 nm 207° / 207° VITERBO

Altitude Profile

Advertisement - Login to hide

LIRZ

Details ICAO LIRZ (PEG)
Name PERUGIA
Region Italy
Timezone Europe/Rome (UTC+1.0)
Stats Elevation 693 ft / 211 m (AMSL)
Location 43.096192° 12.513325°
Runways 1
Magnetic Variation 3.104° E

METAR

LIRZ 130850Z VRB01KT 6000 -RA FEW003 BKN025 08/08 Q1018

Decode

TAF

TAF TAF LIRZ 130500Z 1306/1406 20008KT 9999 SCT015 BKN030 TEMPO 1306/1312 4000 RA

Decode

Departure Runways

ID Width Length Bearing (true) Bearing (mag) Surface Threshold Offset Overrun Length
01 154 ft / 47 m 5,783 ft / 1,763 m 14.26° 11.16° Asphalt 0 ft / 0 m 328 ft / 100 m
19 154 ft / 47 m 5,783 ft / 1,763 m 194.27° 191.17° Asphalt 85 ft / 26 m 0 ft / 0 m

LIRV

Details ICAO LIRV
Name VITERBO
Region Italy
Timezone Europe/Rome (UTC+1.0)
Stats Elevation 990 ft / 302 m (AMSL)
Location 42.436303° 12.062167°
Runways 3
Magnetic Variation 2.987° E

METAR

LIRV 130855Z 18006KT 9999 SCT009 SCT015 BKN025 10/07 Q1017 RMK BKN MON E SE CLD CIME NC VIS MIN 9999 BLU

Decode

TAF

Not found

Destination Runways

ID Width Length Bearing (true) Bearing (mag) Surface Threshold Offset Overrun Length
04C 164 ft / 50 m 4,222 ft / 1,287 m 38.36° 35.37° Grass 0 ft / 0 m 0 ft / 0 m
04L 82 ft / 25 m 3,295 ft / 1,004 m 38.48° 35.49° Asphalt 0 ft / 0 m 0 ft / 0 m
04R 112 ft / 34 m 1,936 ft / 590 m 38.73° 35.74° Asphalt 0 ft / 0 m 0 ft / 0 m
22C 164 ft / 50 m 4,222 ft / 1,287 m 218.37° 215.38° Grass 0 ft / 0 m 0 ft / 0 m
22L 112 ft / 34 m 1,936 ft / 590 m 218.73° 215.74° Asphalt 0 ft / 0 m 0 ft / 0 m
22R 82 ft / 25 m 3,295 ft / 1,004 m 218.48° 215.49° Asphalt 0 ft / 0 m 0 ft / 0 m